createdAt,value
2023-01-17T00:02:24.035Z,95020.88
2023-01-17T00:07:45.476Z,95005.69
2023-01-17T00:12:56.264Z,95001.53
2023-01-17T00:17:58.725Z,94997.97
2023-01-17T00:23:19.023Z,94992.84
2023-01-17T00:28:21.076Z,94999.75
2023-01-17T00:33:24.016Z,95018.28
2023-01-17T00:38:28.331Z,95016.47
2023-01-17T00:43:49.509Z,95002.81
2023-01-17T00:49:10.503Z,95007.31
2023-01-17T00:54:31.225Z,95020.69
2023-01-17T00:59:51.632Z,95021.88
2023-01-17T01:05:12.820Z,95024.41
2023-01-17T01:10:33.743Z,95020.44
2023-01-17T01:15:54.669Z,95019.81
2023-01-17T01:21:15.284Z,95031.66
2023-01-17T01:26:35.692Z,95029.69
2023-01-17T01:31:56.056Z,95019.78
2023-01-17T01:36:57.802Z,95028.09
2023-01-17T01:41:59.638Z,95020.94
2023-01-17T01:47:02.467Z,95027.25
2023-01-17T01:52:07.730Z,95020.13
2023-01-17T01:57:14.042Z,95014.56
2023-01-17T02:02:16.247Z,95015.94
2023-01-17T02:07:25.472Z,95026.03
2023-01-17T02:12:27.851Z,95022.47
2023-01-17T02:17:46.069Z,95026.59
2023-01-17T02:23:06.315Z,95024.41
2023-01-17T02:28:17.182Z,95029.75
2023-01-17T02:33:39.640Z,95028.75
2023-01-17T02:38:41.567Z,95033.91
2023-01-17T02:43:43.982Z,95032.69
2023-01-17T02:48:47.747Z,95037.41
2023-01-17T02:54:14.227Z,95044.13
2023-01-17T02:59:31.182Z,95058.94
2023-01-17T03:04:51.843Z,95062.84
2023-01-17T03:09:59.918Z,95072.72
2023-01-17T03:15:01.898Z,95074.09
2023-01-17T03:20:03.875Z,95077.25
2023-01-17T03:25:07.042Z,95089.88
2023-01-17T03:30:09.424Z,95093.81
2023-01-17T03:35:11.257Z,95100.13
2023-01-17T03:40:13.199Z,95101.72
2023-01-17T03:45:15.117Z,95096.56
2023-01-17T03:50:17.192Z,95113.56
2023-01-17T03:55:19.481Z,95113.00
2023-01-17T04:00:21.501Z,95110.63
2023-01-17T04:05:23.507Z,95131.97
2023-01-17T04:10:25.321Z,95131.97
2023-01-17T04:15:27.233Z,95132.97
2023-01-17T04:20:40.253Z,95139.09
2023-01-17T04:25:42.202Z,95141.31
2023-01-17T04:30:44.121Z,95144.88
2023-01-17T04:35:46.010Z,95157.13
2023-01-17T04:40:48.783Z,95166.63
2023-01-17T04:45:57.978Z,95176.13
2023-01-17T04:51:05.141Z,95185.63
2023-01-17T04:56:07.401Z,95194.91
2023-01-17T05:01:09.991Z,95194.31
2023-01-17T05:06:11.866Z,95205.41
2023-01-17T05:11:14.351Z,95217.47
2023-01-17T05:16:19.415Z,95214.88
2023-01-17T05:21:21.621Z,95222.41
2023-01-17T05:26:24.028Z,95226.75
2023-01-17T05:31:25.901Z,95229.31
2023-01-17T05:36:28.053Z,95232.88
2023-01-17T05:41:30.134Z,95231.31
2023-01-17T05:46:32.012Z,95247.72
2023-01-17T05:51:37.734Z,95240.22
2023-01-17T05:56:39.593Z,95240.66
2023-01-17T06:01:41.396Z,95244.63
2023-01-17T06:06:43.198Z,95260.44
2023-01-17T06:11:45.022Z,95263.63
2023-01-17T06:16:47.862Z,95261.66
2023-01-17T06:21:49.811Z,95274.31
2023-01-17T06:26:51.745Z,95281.63
2023-01-17T06:31:53.805Z,95283.22
2023-01-17T06:36:55.687Z,95288.75
2023-01-17T06:41:57.798Z,95294.88
2023-01-17T06:46:59.736Z,95300.22
2023-01-17T06:52:01.568Z,95295.28
2023-01-17T06:57:03.471Z,95300.81
2023-01-17T07:02:05.770Z,95316.81
2023-01-17T07:07:07.611Z,95334.78
2023-01-17T07:12:10.345Z,95337.56
2023-01-17T07:17:12.577Z,95337.94
2023-01-17T07:22:14.727Z,95329.84
2023-01-17T07:27:17.165Z,95336.78
2023-01-17T07:32:19.463Z,95339.53
2023-01-17T07:37:22.223Z,95347.44
2023-01-17T07:42:24.781Z,95357.72
2023-01-17T07:47:26.859Z,95362.84
2023-01-17T07:52:28.990Z,95366.59
2023-01-17T07:57:32.653Z,95371.94
2023-01-17T08:02:34.444Z,95375.88
2023-01-17T08:07:37.266Z,95371.13
2023-01-17T08:12:42.090Z,95376.47
2023-01-17T08:17:48.689Z,95369.94
2023-01-17T08:22:56.601Z,95374.66
2023-01-17T08:27:58.856Z,95390.50
2023-01-17T08:33:00.656Z,95387.16
2023-01-17T08:38:04.959Z,95408.28
2023-01-17T08:43:06.723Z,95411.06
2023-01-17T08:48:08.549Z,95427.44
2023-01-17T08:53:10.731Z,95423.91
2023-01-17T08:58:13.058Z,95435.19
2023-01-17T09:03:15.039Z,95435.19
2023-01-17T09:08:16.840Z,95448.84
2023-01-17T09:13:18.695Z,95458.50
2023-01-17T09:18:20.605Z,95458.28
2023-01-17T09:23:23.280Z,95467.59
2023-01-17T09:28:26.439Z,95456.53
2023-01-17T09:33:28.324Z,95468.59
2023-01-17T09:38:30.923Z,95470.78
2023-01-17T09:43:48.235Z,95477.91
2023-01-17T09:49:01.970Z,95483.06
2023-01-17T09:54:04.982Z,95477.91
2023-01-17T09:59:19.038Z,95482.66
2023-01-17T10:04:51.998Z,95488.22
2023-01-17T10:10:00.709Z,95489.19
2023-01-17T10:15:21.450Z,95479.88
2023-01-17T10:20:43.204Z,95479.88
2023-01-17T10:25:49.750Z,95475.94
2023-01-17T10:31:25.408Z,95478.91
2023-01-17T10:36:34.548Z,95498.69
2023-01-17T10:41:43.893Z,95505.41
2023-01-17T10:46:56.051Z,95505.78
2023-01-17T10:52:34.998Z,95514.69
2023-01-17T10:57:45.690Z,95524.97
2023-01-17T11:02:51.254Z,95524.97
2023-01-17T11:08:08.105Z,95525.56
2023-01-17T11:13:30.705Z,95515.47
2023-01-17T11:18:36.588Z,95516.28
2023-01-17T11:23:44.637Z,95510.75
2023-01-17T11:28:46.984Z,95509.56
2023-01-17T11:34:05.369Z,95514.88
2023-01-17T11:39:27.710Z,95512.13
2023-01-17T11:44:35.411Z,95508.97
2023-01-17T11:49:37.678Z,95511.72
2023-01-17T11:54:42.886Z,95507.97
2023-01-17T11:59:46.014Z,95512.13
2023-01-17T12:05:18.707Z,95503.03
2023-01-17T12:11:08.528Z,95508.38
2023-01-17T12:16:29.448Z,95504.41
2023-01-17T12:21:48.585Z,95504.81
2023-01-17T12:26:56.149Z,95516.47
2023-01-17T12:32:06.475Z,95512.31
2023-01-17T12:37:21.758Z,95512.72
2023-01-17T12:42:31.049Z,95522.59
2023-01-17T12:47:37.910Z,95525.19
2023-01-17T12:53:28.344Z,95526.38
2023-01-17T12:58:38.376Z,95522.22
2023-01-17T13:03:57.606Z,95517.66
2023-01-17T13:09:02.642Z,95517.84
2023-01-17T13:14:08.841Z,95516.09
2023-01-17T13:25:50.508Z,95530.72
2023-01-17T13:31:15.871Z,95534.09
2023-01-17T13:36:36.332Z,95541.78
2023-01-17T13:42:01.566Z,95558.81
2023-01-17T13:47:17.429Z,95559.41
2023-01-17T13:52:19.171Z,95566.72
2023-01-17T13:57:29.554Z,95561.78
2023-01-17T14:02:31.627Z,95559.41
2023-01-17T14:07:36.030Z,95570.47
2023-01-17T14:12:39.240Z,95570.88
2023-01-17T14:17:50.963Z,95561.97
2023-01-17T14:23:02.461Z,95567.31
2023-01-17T14:28:31.435Z,95561.75
2023-01-17T14:33:39.873Z,95564.13
2023-01-17T14:38:43.770Z,95560.38
2023-01-17T14:43:48.596Z,95578.97
2023-01-17T14:48:52.730Z,95574.78
2023-01-17T14:53:59.472Z,95577.75
2023-01-17T14:59:20.261Z,95581.69
2023-01-17T15:04:30.724Z,95582.25
2023-01-17T15:09:37.171Z,95583.03
2023-01-17T15:14:44.532Z,95583.19
2023-01-17T15:20:11.301Z,95598.78
2023-01-17T15:25:16.081Z,95602.25
2023-01-17T15:30:18.713Z,95608.91
2023-01-17T15:35:21.186Z,95607.09
2023-01-17T15:40:25.365Z,95607.88
2023-01-17T15:45:29.932Z,95609.28
2023-01-17T15:50:32.269Z,95609.28
2023-01-17T15:55:36.756Z,95615.16
2023-01-17T16:00:39.435Z,95607.25
2023-01-17T16:05:43.908Z,95604.03
2023-01-17T16:10:45.851Z,95610.69
2023-01-17T16:15:47.988Z,95610.28
2023-01-17T16:20:55.210Z,95611.03
2023-01-17T16:25:57.040Z,95610.00
2023-01-17T16:30:59.061Z,95610.56
2023-01-17T16:36:01.188Z,95608.34
2023-01-17T16:41:04.592Z,95608.13
2023-01-17T16:46:06.782Z,95598.41
2023-01-17T16:51:08.769Z,95599.16
2023-01-17T16:56:14.531Z,95595.75
2023-01-17T17:01:20.845Z,95589.75
2023-01-17T17:06:22.880Z,95586.16
2023-01-17T17:11:25.239Z,95586.47
2023-01-17T17:16:31.504Z,95584.03
2023-01-17T17:21:35.249Z,95582.19
2023-01-17T17:26:37.448Z,95575.25
2023-01-17T17:31:41.206Z,95603.63
2023-01-17T17:36:43.551Z,95611.84
2023-01-17T17:41:45.946Z,95610.63
2023-01-17T17:46:49.773Z,95611.34
2023-01-17T17:51:51.821Z,95608.53
2023-01-17T17:56:53.961Z,95608.88
2023-01-17T18:01:55.970Z,95606.88
2023-01-17T18:06:58.356Z,95611.19
2023-01-17T18:12:01.238Z,95625.34
2023-01-17T18:17:03.032Z,95616.78
2023-01-17T18:22:04.858Z,95619.69
2023-01-17T18:27:06.946Z,95623.59
2023-01-17T18:32:08.817Z,95610.53
2023-01-17T18:37:10.907Z,95604.00
2023-01-17T18:42:12.842Z,95611.22
2023-01-17T18:47:14.717Z,95613.34
2023-01-17T18:52:17.604Z,95614.88
2023-01-17T18:57:19.442Z,95614.41
2023-01-17T19:02:21.450Z,95628.00
2023-01-17T19:07:24.166Z,95625.00
2023-01-17T19:12:26.462Z,95622.81
2023-01-17T19:17:28.207Z,95625.72
2023-01-17T19:22:30.754Z,95622.91
2023-01-17T19:27:33.117Z,95626.59
2023-01-17T19:32:34.983Z,95637.19
2023-01-17T19:37:37.171Z,95638.34
2023-01-17T19:42:40.678Z,95637.53
2023-01-17T19:47:42.441Z,95642.03
2023-01-17T19:52:44.365Z,95642.38
2023-01-17T19:57:46.150Z,95643.69
2023-01-17T20:02:48.154Z,95644.84
2023-01-17T20:07:50.095Z,95649.50
2023-01-17T20:12:52.305Z,95655.16
2023-01-17T20:17:54.511Z,95669.09
2023-01-17T20:22:56.610Z,95674.53
2023-01-17T20:27:58.927Z,95677.63
2023-01-17T20:33:00.979Z,95679.56
2023-01-17T20:38:02.869Z,95687.06
2023-01-17T20:43:04.724Z,95684.66
2023-01-17T20:48:06.642Z,95692.53
2023-01-17T20:53:08.388Z,95691.72
2023-01-17T20:58:10.198Z,95690.31
2023-01-17T21:03:12.438Z,95686.94
2023-01-17T21:08:17.745Z,95669.22
2023-01-17T21:13:20.701Z,95675.47
2023-01-17T21:18:24.289Z,95677.06
2023-01-17T21:23:29.365Z,95687.13
2023-01-17T21:28:34.515Z,95687.13
2023-01-17T21:33:36.301Z,95678.81
2023-01-17T21:38:38.935Z,95676.28
2023-01-17T21:43:40.958Z,95669.38
2023-01-17T21:48:44.556Z,95678.81
2023-01-17T21:53:46.363Z,95671.31
2023-01-17T21:58:53.797Z,95667.97
2023-01-17T22:03:58.542Z,95659.34
2023-01-17T22:09:00.526Z,95645.94
2023-01-17T22:14:05.208Z,95646.28
2023-01-17T22:19:07.111Z,95644.69
2023-01-17T22:24:09.549Z,95638.78
2023-01-17T22:29:11.484Z,95637.97
2023-01-17T22:34:14.076Z,95629.69
2023-01-17T22:39:15.863Z,95632.88
2023-01-17T22:44:18.061Z,95626.78
2023-01-17T22:49:23.503Z,95621.50
2023-01-17T22:54:25.332Z,95611.25
2023-01-17T22:59:27.199Z,95607.13
2023-01-17T23:04:29.239Z,95599.19
2023-01-17T23:09:31.139Z,95580.81
2023-01-17T23:14:54.038Z,95589.47
2023-01-17T23:19:55.847Z,95580.66
2023-01-17T23:25:00.166Z,95575.66
2023-01-17T23:30:04.618Z,95584.38
2023-01-17T23:35:07.128Z,95576.81
2023-01-17T23:40:10.048Z,95586.34
2023-01-17T23:45:11.832Z,95582.03
2023-01-17T23:50:13.727Z,95582.47
2023-01-17T23:55:15.678Z,95583.88
